createdAt,value
2024-04-25T00:02:08.325Z,3.80
2024-04-25T00:07:10.920Z,3.90
2024-04-25T00:12:13.458Z,3.70
2024-04-25T00:17:18.049Z,3.60
2024-04-25T00:22:20.803Z,3.60
2024-04-25T00:27:23.338Z,3.70
2024-04-25T00:32:25.908Z,3.20
2024-04-25T00:37:28.460Z,3.20
2024-04-25T00:42:30.988Z,3.00
2024-04-25T00:47:34.313Z,2.90
2024-04-25T00:52:37.150Z,2.90
2024-04-25T00:57:41.155Z,2.80
2024-04-25T01:02:44.640Z,2.90
2024-04-25T01:07:47.568Z,2.80
2024-04-25T01:12:50.342Z,2.70
2024-04-25T01:17:52.963Z,2.70
2024-04-25T01:22:58.082Z,2.70
2024-04-25T01:28:01.996Z,2.70
2024-04-25T01:33:05.538Z,2.60
2024-04-25T01:38:08.276Z,2.30
2024-04-25T01:43:10.828Z,2.20
2024-04-25T01:48:13.551Z,2.20
2024-04-25T01:53:16.192Z,2.50
2024-04-25T01:58:18.756Z,2.40
2024-04-25T02:03:21.336Z,2.30
2024-04-25T02:08:24.437Z,2.40
2024-04-25T02:13:26.950Z,2.50
2024-04-25T02:18:29.806Z,2.70
2024-04-25T02:23:51.282Z,2.80
2024-04-25T02:28:54.233Z,2.60
2024-04-25T02:33:56.877Z,2.70
2024-04-25T02:38:59.500Z,2.70
2024-04-25T02:44:02.516Z,2.50
2024-04-25T02:49:05.116Z,2.60
2024-04-25T02:54:07.977Z,2.70
2024-04-25T02:59:10.575Z,2.70
2024-04-25T03:04:13.271Z,2.80
2024-04-25T03:09:16.031Z,2.90
2024-04-25T03:14:18.602Z,3.00
2024-04-25T03:19:21.144Z,3.00
2024-04-25T03:24:23.661Z,3.10
2024-04-25T03:29:26.240Z,3.20
2024-04-25T03:34:28.844Z,3.10
2024-04-25T03:39:32.373Z,3.10
2024-04-25T03:44:35.029Z,2.80
2024-04-25T03:49:37.679Z,2.90
2024-04-25T03:54:40.270Z,2.90
2024-04-25T03:59:43.027Z,3.00
2024-04-25T04:04:46.016Z,3.00
2024-04-25T04:09:49.115Z,3.00
2024-04-25T04:14:51.746Z,3.00
2024-04-25T04:19:54.402Z,3.20
2024-04-25T04:24:57.056Z,3.50
2024-04-25T04:29:59.959Z,3.60
2024-04-25T04:35:02.696Z,3.70
2024-04-25T04:40:06.541Z,3.70
2024-04-25T04:45:09.073Z,3.80
2024-04-25T04:50:11.675Z,4.00
2024-04-25T04:55:15.162Z,4.20
2024-04-25T05:00:17.976Z,4.30
2024-04-25T05:05:22.808Z,4.60
2024-04-25T05:10:30.588Z,4.90
2024-04-25T05:15:33.206Z,5.10
2024-04-25T05:20:35.936Z,5.50
2024-04-25T05:25:38.537Z,5.60
2024-04-25T05:30:41.539Z,5.80
2024-04-25T05:35:44.810Z,6.00
2024-04-25T05:40:47.475Z,5.90
2024-04-25T05:45:50.085Z,6.00
2024-04-25T05:50:52.750Z,6.00
2024-04-25T05:55:55.371Z,5.90
2024-04-25T06:00:57.943Z,5.90
2024-04-25T06:06:02.510Z,6.10
2024-04-25T06:11:05.544Z,6.10
2024-04-25T06:16:09.499Z,6.40
2024-04-25T06:21:12.111Z,6.60
2024-04-25T06:26:14.626Z,6.80
2024-04-25T06:31:18.390Z,6.80
2024-04-25T06:36:21.081Z,6.90
2024-04-25T06:41:23.810Z,6.90
2024-04-25T06:46:26.495Z,7.40
2024-04-25T06:51:29.454Z,7.70
2024-04-25T06:56:32.099Z,8.20
2024-04-25T07:01:34.728Z,8.80
2024-04-25T07:06:37.359Z,8.80
2024-04-25T07:11:40.314Z,8.90
2024-04-25T07:16:42.981Z,9.20
2024-04-25T07:21:45.546Z,9.80
2024-04-25T07:26:48.206Z,9.90
2024-04-25T07:31:51.242Z,9.90
2024-04-25T07:36:54.126Z,10.40
2024-04-25T07:41:56.830Z,10.70
2024-04-25T07:46:59.497Z,10.90
2024-04-25T07:52:02.269Z,10.70
2024-04-25T07:57:04.939Z,10.50
2024-04-25T08:02:08.102Z,10.60
2024-04-25T08:07:10.680Z,10.30
2024-04-25T08:12:13.289Z,10.60
2024-04-25T08:17:16.319Z,10.30
2024-04-25T08:22:19.029Z,10.50
2024-04-25T08:27:21.700Z,10.20
2024-04-25T08:32:26.212Z,9.90
2024-04-25T08:37:29.169Z,10.40
2024-04-25T08:42:33.064Z,11.10
2024-04-25T08:47:40.333Z,11.10
2024-04-25T08:52:44.587Z,11.10
2024-04-25T08:57:47.173Z,10.80
2024-04-25T09:02:52.158Z,11.40
2024-04-25T09:07:55.151Z,12.00
2024-04-25T09:12:57.638Z,12.60
2024-04-25T09:18:00.555Z,12.60
2024-04-25T09:23:05.894Z,12.50
2024-04-25T09:28:09.420Z,13.20
2024-04-25T09:33:12.333Z,13.60
2024-04-25T09:38:16.298Z,13.70
2024-04-25T09:43:20.579Z,13.10
2024-04-25T09:48:23.496Z,13.70
2024-04-25T09:53:30.745Z,13.20
2024-04-25T09:58:58.314Z,13.10
2024-04-25T10:04:01.624Z,14.10
2024-04-25T10:09:05.392Z,14.30
2024-04-25T10:14:08.002Z,14.10
2024-04-25T10:19:10.658Z,13.50
2024-04-25T10:24:15.463Z,13.10
2024-04-25T10:29:18.129Z,12.90
2024-04-25T10:34:21.083Z,12.70
2024-04-25T10:39:23.732Z,13.60
2024-04-25T10:44:26.488Z,13.60
2024-04-25T10:49:29.269Z,13.00
2024-04-25T10:54:32.592Z,12.80
2024-04-25T10:59:35.208Z,12.40
2024-04-25T11:04:41.281Z,12.10
2024-04-25T11:09:44.002Z,11.80
2024-04-25T11:14:46.641Z,10.30
2024-04-25T11:19:50.463Z,9.60
2024-04-25T11:24:53.488Z,9.70
2024-04-25T11:29:56.831Z,10.30
2024-04-25T11:35:10.165Z,10.80
2024-04-25T11:40:12.873Z,11.40
2024-04-25T11:45:15.555Z,11.50
2024-04-25T11:50:18.102Z,11.50
2024-04-25T11:55:20.673Z,12.30
2024-04-25T12:00:23.171Z,12.60
2024-04-25T12:05:26.014Z,12.60
2024-04-25T12:10:31.633Z,12.90
2024-04-25T12:15:35.107Z,12.10
2024-04-25T12:20:37.771Z,11.80
2024-04-25T12:25:40.435Z,11.20
2024-04-25T12:30:43.488Z,11.30
2024-04-25T12:35:46.500Z,12.10
2024-04-25T12:40:49.206Z,11.80
2024-04-25T12:45:55.097Z,11.10
2024-04-25T12:51:00.690Z,10.90
2024-04-25T12:56:03.552Z,11.00
2024-04-25T13:01:06.171Z,11.30
2024-04-25T13:06:09.479Z,11.70
2024-04-25T13:11:13.772Z,11.40
2024-04-25T13:16:17.330Z,11.00
2024-04-25T13:21:20.044Z,10.70
2024-04-25T13:26:27.464Z,10.80
2024-04-25T13:31:30.077Z,10.70
2024-04-25T13:36:33.017Z,11.20
2024-04-25T13:41:35.655Z,11.50
2024-04-25T13:46:38.343Z,11.80
2024-04-25T13:51:41.333Z,11.70
2024-04-25T13:56:44.089Z,11.30
2024-04-25T14:01:46.796Z,11.70
2024-04-25T14:06:49.400Z,11.70
2024-04-25T14:11:52.065Z,12.00
2024-04-25T14:16:54.885Z,11.80
2024-04-25T14:21:57.467Z,11.40
2024-04-25T14:27:18.358Z,11.30
2024-04-25T14:32:20.960Z,11.40
2024-04-25T14:37:24.934Z,11.60
2024-04-25T14:42:27.811Z,11.70
2024-04-25T14:47:30.402Z,11.30
2024-04-25T14:52:33.047Z,11.10
2024-04-25T14:57:35.596Z,10.80
2024-04-25T15:02:39.213Z,11.00
2024-04-25T15:07:41.823Z,10.40
2024-04-25T15:12:44.482Z,10.20
2024-04-25T15:17:50.162Z,10.00
2024-04-25T15:22:54.422Z,10.10
2024-04-25T15:27:58.867Z,9.90
2024-04-25T15:33:01.579Z,10.10
2024-04-25T15:38:04.560Z,10.30
2024-04-25T15:43:07.165Z,10.50
2024-04-25T15:48:09.898Z,10.50
2024-04-25T15:53:12.603Z,10.30
2024-04-25T15:58:15.205Z,10.10
2024-04-25T16:03:18.091Z,10.10
2024-04-25T16:08:20.656Z,10.00
2024-04-25T16:13:23.240Z,9.70
2024-04-25T16:18:25.960Z,9.40
2024-04-25T16:23:29.601Z,9.30
2024-04-25T16:28:32.249Z,9.20
2024-04-25T16:33:35.135Z,9.10
2024-04-25T16:38:37.980Z,9.00
2024-04-25T16:43:40.563Z,8.90
2024-04-25T16:48:44.315Z,8.80
2024-04-25T16:53:47.038Z,8.70
2024-04-25T16:58:50.527Z,8.70
2024-04-25T17:03:53.178Z,8.70
2024-04-25T17:08:55.854Z,8.70
2024-04-25T17:14:05.165Z,8.60
2024-04-25T17:19:08.724Z,8.50
2024-04-25T17:24:11.425Z,8.50
2024-04-25T17:29:15.759Z,8.50
2024-04-25T17:34:20.226Z,8.40
2024-04-25T17:39:22.999Z,8.30
2024-04-25T17:44:25.591Z,8.20
2024-04-25T17:49:28.343Z,8.10
2024-04-25T17:54:30.941Z,8.00
2024-04-25T17:59:33.624Z,8.20
2024-04-25T18:04:36.391Z,8.20
2024-04-25T18:09:39.094Z,8.10
2024-04-25T18:14:41.790Z,8.10
2024-04-25T18:19:44.866Z,8.40
2024-04-25T18:24:47.473Z,8.00
2024-04-25T18:29:52.543Z,7.80
2024-04-25T18:34:55.191Z,7.50
2024-04-25T18:39:59.409Z,7.40
2024-04-25T18:45:02.070Z,7.30
2024-04-25T18:50:05.124Z,7.00
2024-04-25T18:55:07.734Z,6.80
2024-04-25T19:00:10.530Z,6.70
2024-04-25T19:05:13.181Z,6.70
2024-04-25T19:10:15.702Z,6.60
2024-04-25T19:15:18.258Z,6.60
2024-04-25T19:20:20.984Z,6.50
2024-04-25T19:25:23.588Z,6.40
2024-04-25T19:30:26.390Z,6.20
2024-04-25T19:35:29.012Z,6.00
2024-04-25T19:40:31.911Z,5.70
2024-04-25T19:45:34.508Z,6.00
2024-04-25T19:50:37.093Z,5.60
2024-04-25T19:55:39.979Z,5.50
2024-04-25T20:00:42.569Z,5.40
2024-04-25T20:05:45.680Z,5.40
2024-04-25T20:10:48.224Z,5.30
2024-04-25T20:15:50.757Z,5.20
2024-04-25T20:21:07.146Z,5.10
2024-04-25T20:26:11.420Z,5.10
2024-04-25T20:31:20.980Z,5.10
2024-04-25T20:36:23.562Z,5.00
2024-04-25T20:41:27.778Z,5.00
2024-04-25T20:46:30.372Z,4.80
2024-04-25T20:51:35.251Z,4.70
2024-04-25T20:56:40.849Z,4.60
2024-04-25T21:01:43.569Z,4.60
2024-04-25T21:06:48.192Z,4.50
2024-04-25T21:11:51.147Z,4.40
2024-04-25T21:16:53.946Z,4.40
2024-04-25T21:21:56.882Z,4.40
2024-04-25T21:26:59.534Z,4.40
2024-04-25T21:32:02.122Z,4.10
2024-04-25T21:37:04.843Z,4.10
2024-04-25T21:42:08.221Z,4.20
2024-04-25T21:47:10.726Z,4.00
2024-04-25T21:52:13.463Z,3.90
2024-04-25T21:57:18.768Z,4.20
2024-04-25T22:02:21.757Z,4.00
2024-04-25T22:07:24.530Z,3.90
2024-04-25T22:12:27.522Z,3.80
2024-04-25T22:17:30.310Z,4.00
2024-04-25T22:22:32.959Z,3.60
2024-04-25T22:27:41.165Z,3.90
2024-04-25T22:32:44.001Z,3.70
2024-04-25T22:37:46.707Z,3.60
2024-04-25T22:42:49.546Z,3.60
2024-04-25T22:47:52.344Z,3.60
2024-04-25T22:52:55.088Z,3.60
2024-04-25T22:57:58.423Z,3.50
2024-04-25T23:03:00.992Z,3.40
2024-04-25T23:08:03.815Z,3.20
2024-04-25T23:13:06.416Z,3.30
2024-04-25T23:18:08.997Z,3.20
2024-04-25T23:23:11.545Z,3.10
2024-04-25T23:28:14.069Z,3.10
2024-04-25T23:33:16.773Z,3.10
2024-04-25T23:38:19.575Z,3.00
2024-04-25T23:43:22.255Z,3.00
2024-04-25T23:48:24.955Z,2.90
2024-04-25T23:53:27.619Z,3.10
2024-04-25T23:58:30.261Z,2.80
